createdAt,value
2018-05-24T00:03:19.307Z,8.87
2018-05-24T00:09:14.302Z,12.39
2018-05-24T00:15:09.299Z,8.82
2018-05-24T00:21:04.320Z,13.24
2018-05-24T00:26:59.317Z,8.72
2018-05-24T00:32:54.279Z,9.05
2018-05-24T00:38:49.328Z,11.6
2018-05-24T00:44:44.299Z,11.91
2018-05-24T00:50:39.307Z,17.37
2018-05-24T00:56:34.316Z,9.43
2018-05-24T01:02:29.349Z,9.5
2018-05-24T01:08:24.310Z,10.23
2018-05-24T01:14:19.268Z,9.69
2018-05-24T01:20:14.307Z,9.21
2018-05-24T01:26:09.294Z,8.06
2018-05-24T01:32:04.304Z,8.84
2018-05-24T01:37:59.273Z,11.16
2018-05-24T01:43:54.269Z,10.43
2018-05-24T01:49:49.296Z,11.49
2018-05-24T01:55:44.273Z,16.02
2018-05-24T02:01:39.234Z,17.62
2018-05-24T02:07:34.289Z,13.52
2018-05-24T02:13:29.229Z,18.86
2018-05-24T02:19:24.338Z,13.38
2018-05-24T02:25:19.221Z,11.83
2018-05-24T02:31:14.310Z,9.83
2018-05-24T02:37:09.237Z,13.9
2018-05-24T02:43:04.221Z,17.24
2018-05-24T02:48:59.258Z,11.51
2018-05-24T02:54:54.243Z,13.45
2018-05-24T03:00:49.512Z,13.12
2018-05-24T03:06:44.267Z,13.28
2018-05-24T03:12:39.367Z,14.39
2018-05-24T03:18:34.213Z,12.84
2018-05-24T03:24:29.227Z,18.95
2018-05-24T03:30:24.194Z,11.84
2018-05-24T03:36:19.210Z,12.61
2018-05-24T03:42:14.231Z,11.54
2018-05-24T03:48:09.235Z,17.08
2018-05-24T03:54:04.241Z,12.83
2018-05-24T03:59:59.248Z,13
2018-05-24T04:05:54.239Z,13.47
2018-05-24T04:11:49.329Z,16.31
2018-05-24T04:17:44.205Z,18.08
2018-05-24T04:23:39.181Z,18.07
2018-05-24T04:29:34.245Z,14.93
2018-05-24T04:35:29.191Z,13.5
2018-05-24T04:41:24.194Z,13.86
2018-05-24T04:47:19.165Z,13.12
2018-05-24T04:53:14.212Z,15.95
2018-05-24T04:59:09.180Z,12.97
2018-05-24T05:05:04.215Z,15.47
2018-05-24T05:10:59.178Z,13.57
2018-05-24T05:16:54.187Z,14.82
2018-05-24T05:22:49.193Z,21.41
2018-05-24T05:28:44.182Z,36.11
2018-05-24T05:34:39.162Z,23.18
2018-05-24T05:40:34.138Z,19.09
2018-05-24T05:46:29.166Z,20.64
2018-05-24T05:52:24.143Z,15.95
2018-05-24T05:58:19.135Z,20.8
2018-05-24T06:04:14.150Z,21.45
2018-05-24T06:10:09.188Z,20.52
2018-05-24T06:16:04.142Z,19.49
2018-05-24T06:21:59.115Z,23.48
2018-05-24T06:27:54.150Z,22.53
2018-05-24T06:33:49.160Z,26.38
2018-05-24T06:39:44.118Z,28.2
2018-05-24T06:45:39.137Z,24.13
2018-05-24T06:51:34.143Z,21.82
2018-05-24T06:57:29.142Z,27.9
2018-05-24T07:03:24.117Z,21.43
2018-05-24T07:09:19.093Z,28.8
2018-05-24T07:15:14.164Z,28.2
2018-05-24T07:21:09.138Z,27.04
2018-05-24T07:27:04.140Z,25.87
2018-05-24T07:32:59.087Z,28.02
2018-05-24T07:38:54.189Z,30.22
2018-05-24T07:44:49.136Z,25.25
2018-05-24T07:50:44.156Z,31.38
2018-05-24T07:56:39.156Z,26.44
2018-05-24T08:02:34.096Z,27.96
2018-05-24T08:08:29.194Z,27.94
2018-05-24T08:14:24.081Z,25.95
2018-05-24T08:20:19.189Z,31.03
2018-05-24T08:26:14.089Z,26.45
2018-05-24T08:32:09.088Z,24.02
2018-05-24T08:38:04.066Z,19
2018-05-24T08:43:59.120Z,16.65
2018-05-24T08:49:54.076Z,19.36
2018-05-24T08:55:49.079Z,20.58
2018-05-24T09:01:44.038Z,23.49
2018-05-24T09:07:39.062Z,20.18
2018-05-24T09:13:34.037Z,21.36
2018-05-24T09:19:29.051Z,25.87
2018-05-24T09:25:24.081Z,30.48
2018-05-24T09:31:19.075Z,29.95
2018-05-24T09:37:14.060Z,29.03
2018-05-24T09:43:09.050Z,24.01
2018-05-24T09:49:04.081Z,18.67
2018-05-24T09:54:59.029Z,20.96
2018-05-24T10:00:54.028Z,29.61
2018-05-24T10:06:49.042Z,25.78
2018-05-24T10:12:44.082Z,37.64
2018-05-24T10:18:39.081Z,29.69
2018-05-24T10:24:34.044Z,29.83
2018-05-24T10:30:29.014Z,22.62
2018-05-24T10:36:24.081Z,24.31
2018-05-24T10:42:19.032Z,24.77
2018-05-24T10:48:14.122Z,28.64
2018-05-24T10:54:09.116Z,29.07
2018-05-24T11:00:04.545Z,25.11
2018-05-24T11:05:59.012Z,24.34
2018-05-24T11:11:54.003Z,23.25
2018-05-24T11:17:49.047Z,20.45
2018-05-24T11:23:44.070Z,17.85
2018-05-24T11:29:38.995Z,19.37
2018-05-24T11:35:34.033Z,26.02
2018-05-24T11:41:29.045Z,23.38
2018-05-24T11:47:24.017Z,24.66
2018-05-24T11:53:19.023Z,23.52
2018-05-24T11:59:14.002Z,22.9
2018-05-24T12:05:08.990Z,20.53
2018-05-24T12:11:03.975Z,23.86
2018-05-24T12:16:58.981Z,17.59
2018-05-24T12:22:54.035Z,19.79
2018-05-24T12:28:49.020Z,23.48
2018-05-24T12:34:43.993Z,19.53
2018-05-24T12:40:39.008Z,18.95
2018-05-24T12:46:33.976Z,25.93
2018-05-24T12:52:28.997Z,16.52
2018-05-24T12:58:23.992Z,18.35
2018-05-24T13:04:19.112Z,20.73
2018-05-24T13:10:13.976Z,22.15
2018-05-24T13:16:09.000Z,18
2018-05-24T13:22:03.973Z,19.38
2018-05-24T13:27:58.967Z,25.55
2018-05-24T13:33:53.948Z,24.94
2018-05-24T13:39:48.945Z,21.65
2018-05-24T13:45:44.009Z,16.27
2018-05-24T13:51:38.949Z,18.13
2018-05-24T13:57:33.959Z,20.07
2018-05-24T14:03:28.943Z,21.86
2018-05-24T14:09:24.035Z,25.06
2018-05-24T14:15:18.922Z,18.09
2018-05-24T14:21:13.942Z,21.13
2018-05-24T14:27:08.948Z,18.47
2018-05-24T14:33:03.978Z,14.47
2018-05-24T14:38:58.952Z,16.22
2018-05-24T14:44:54.034Z,16.92
2018-05-24T14:50:49.030Z,16.3
2018-05-24T14:56:43.913Z,11.99
2018-05-24T15:02:38.952Z,15.72
2018-05-24T15:08:33.940Z,17.3
2018-05-24T15:14:28.988Z,13.48
2018-05-24T15:20:23.938Z,18.73
2018-05-24T15:26:18.960Z,14.61
2018-05-24T15:32:13.971Z,14.3
2018-05-24T15:38:08.918Z,17.13
2018-05-24T15:44:03.896Z,17.16
2018-05-24T15:49:58.890Z,16.14
2018-05-24T15:55:53.909Z,15.95
2018-05-24T16:01:48.902Z,20.95
2018-05-24T16:07:43.912Z,15.08
2018-05-24T16:13:38.928Z,15.2
2018-05-24T16:19:33.921Z,16.69
2018-05-24T16:25:28.918Z,16
2018-05-24T16:31:23.905Z,19.36
2018-05-24T16:37:18.879Z,16.86
2018-05-24T16:43:13.918Z,15.63
2018-05-24T16:49:08.933Z,14.98
2018-05-24T16:55:04.018Z,15.02
2018-05-24T17:00:58.901Z,16.1
2018-05-24T17:06:53.878Z,14.76
2018-05-24T17:12:48.907Z,15.22
2018-05-24T17:18:43.892Z,15.91
2018-05-24T17:24:38.911Z,19.94
2018-05-24T17:30:33.866Z,25.11
2018-05-24T17:36:28.884Z,21.36
2018-05-24T17:42:23.896Z,13.38
2018-05-24T17:48:18.879Z,12.27
2018-05-24T17:54:13.838Z,15.74
2018-05-24T18:00:08.871Z,17.74
2018-05-24T18:06:03.864Z,15.1
2018-05-24T18:11:58.870Z,48.32
2018-05-24T18:17:53.856Z,26.42
2018-05-24T18:23:48.854Z,25.19
2018-05-24T18:29:43.907Z,61.73
2018-05-24T18:35:38.912Z,57.87
2018-05-24T18:41:33.875Z,42.86
2018-05-24T18:47:28.860Z,23.82
2018-05-24T18:53:23.822Z,51.23
2018-05-24T18:59:18.830Z,66.87
2018-05-24T19:05:13.931Z,29.59
2018-05-24T19:11:09.078Z,39.03
2018-05-24T19:17:03.876Z,23.38
2018-05-24T19:22:58.836Z,35.55
2018-05-24T19:28:53.850Z,30.01
2018-05-24T19:34:48.833Z,23.35
2018-05-24T19:40:43.866Z,22.78
2018-05-24T19:46:38.824Z,24.65
2018-05-24T19:52:33.818Z,21.6
2018-05-24T19:58:28.793Z,23.23
2018-05-24T20:04:23.813Z,22.43
2018-05-24T20:10:18.831Z,24.57
2018-05-24T20:16:13.852Z,23.34
2018-05-24T20:22:08.795Z,21.36
2018-05-24T20:28:03.847Z,21.29
2018-05-24T20:33:58.802Z,26.09
2018-05-24T20:39:53.806Z,21.23
2018-05-24T20:45:48.849Z,27.27
2018-05-24T20:51:43.837Z,20.6
2018-05-24T20:57:38.827Z,20.1
2018-05-24T21:03:33.766Z,18.06
2018-05-24T21:09:28.811Z,23.42
2018-05-24T21:15:23.781Z,24.66
2018-05-24T21:21:18.760Z,24.03
2018-05-24T21:27:13.772Z,21.74
2018-05-24T21:33:08.755Z,27.33
2018-05-24T21:39:03.732Z,19.64
2018-05-24T21:44:58.783Z,21.62
2018-05-24T21:50:53.742Z,23.35
2018-05-24T21:56:48.749Z,23.87
2018-05-24T22:02:43.745Z,30.24
2018-05-24T22:08:38.792Z,25.13
2018-05-24T22:14:33.735Z,25.13
2018-05-24T22:20:28.757Z,24.42
2018-05-24T22:26:23.758Z,23.31
2018-05-24T22:32:18.734Z,19.97
2018-05-24T22:38:13.717Z,21.91
2018-05-24T22:44:08.763Z,20.59
2018-05-24T22:50:03.747Z,22.52
2018-05-24T22:55:58.716Z,22.29
2018-05-24T23:01:53.735Z,23.21
2018-05-24T23:07:48.749Z,19.51
2018-05-24T23:13:43.745Z,36.93
2018-05-24T23:19:38.850Z,19.43
2018-05-24T23:25:33.700Z,22.27
2018-05-24T23:31:28.775Z,21.23
2018-05-24T23:37:23.768Z,25.79
2018-05-24T23:43:18.695Z,25.02
2018-05-24T23:49:13.699Z,25.62
2018-05-24T23:55:08.710Z,35.78
